sensor_id;sensor_type;location;lat;lon;timestamp;pressure;altitude;pressure_sealevel;temperature;humidity
9257;BME280;4665;51.368;6.782;2022-10-30T00:01:41;101408.28;;;17.29;93.04
9257;BME280;4665;51.368;6.782;2022-10-30T00:04:07;101405.31;;;17.23;93.12
9257;BME280;4665;51.368;6.782;2022-10-30T00:06:33;101393.31;;;17.11;94.48
9257;BME280;4665;51.368;6.782;2022-10-30T00:08:58;101397.22;;;17.09;94.43
9257;BME280;4665;51.368;6.782;2022-10-30T00:11:24;101403.06;;;17.12;94.03
9257;BME280;4665;51.368;6.782;2022-10-30T00:13:49;101412.06;;;17.19;93.65
9257;BME280;4665;51.368;6.782;2022-10-30T00:16:14;101390.34;;;17.06;94.05
9257;BME280;4665;51.368;6.782;2022-10-30T00:18:40;101396.75;;;17.05;95.04
9257;BME280;4665;51.368;6.782;2022-10-30T00:21:10;101402.41;;;17.10;94.94
9257;BME280;4665;51.368;6.782;2022-10-30T00:23:36;101399.44;;;17.05;95.69
9257;BME280;4665;51.368;6.782;2022-10-30T00:26:04;101410.31;;;17.12;97.29
9257;BME280;4665;51.368;6.782;2022-10-30T00:28:30;101399.63;;;17.03;94.97
9257;BME280;4665;51.368;6.782;2022-10-30T00:31:00;101385.41;;;16.95;95.95
9257;BME280;4665;51.368;6.782;2022-10-30T00:33:27;101393.75;;;17.00;97.82
9257;BME280;4665;51.368;6.782;2022-10-30T00:35:52;101397.38;;;16.92;98.52
9257;BME280;4665;51.368;6.782;2022-10-30T00:38:18;101393.81;;;16.92;98.72
9257;BME280;4665;51.368;6.782;2022-10-30T00:40:43;101396.72;;;16.90;98.98
9257;BME280;4665;51.368;6.782;2022-10-30T00:45:55;101402.56;;;16.94;99.56
9257;BME280;4665;51.368;6.782;2022-10-30T00:48:23;101402.56;;;16.94;99.26
9257;BME280;4665;51.368;6.782;2022-10-30T00:50:52;101380.63;;;16.82;100.00
9257;BME280;4665;51.368;6.782;2022-10-30T00:53:18;101397.44;;;16.84;100.00
9257;BME280;4665;51.368;6.782;2022-10-30T00:55:54;101409.13;;;16.91;99.36
9257;BME280;4665;51.368;6.782;2022-10-30T00:58:28;101402.44;;;16.87;99.53
9257;BME280;4665;51.368;6.782;2022-10-30T01:00:56;101410.16;;;16.90;100.00
9257;BME280;4665;51.368;6.782;2022-10-30T01:03:25;101412.66;;;16.92;99.47
9257;BME280;4665;51.368;6.782;2022-10-30T01:05:56;101418.03;;;16.92;99.64
9257;BME280;4665;51.368;6.782;2022-10-30T01:08:22;101397.28;;;16.77;100.00
9257;BME280;4665;51.368;6.782;2022-10-30T01:10:49;101408.19;;;16.84;100.00
9257;BME280;4665;51.368;6.782;2022-10-30T01:13:15;101403.00;;;16.82;100.00
9257;BME280;4665;51.368;6.782;2022-10-30T01:15:59;101400.81;;;16.78;100.00
9257;BME280;4665;51.368;6.782;2022-10-30T01:21:13;101408.56;;;16.73;100.00
9257;BME280;4665;51.368;6.782;2022-10-30T01:23:49;101410.44;;;16.72;100.00
9257;BME280;4665;51.368;6.782;2022-10-30T01:29:10;101411.16;;;16.66;100.00
9257;BME280;4665;51.368;6.782;2022-10-30T01:31:43;101415.53;;;16.67;100.00
9257;BME280;4665;51.368;6.782;2022-10-30T01:34:20;101422.28;;;16.63;100.00
9257;BME280;4665;51.368;6.782;2022-10-30T01:36:58;101404.81;;;16.59;100.00
9257;BME280;4665;51.368;6.782;2022-10-30T01:39:27;101388.75;;;16.51;100.00
9257;BME280;4665;51.368;6.782;2022-10-30T01:41:53;101379.00;;;16.50;100.00
9257;BME280;4665;51.368;6.782;2022-10-30T01:44:24;101396.28;;;16.55;100.00
9257;BME280;4665;51.368;6.782;2022-10-30T01:49:46;101395.44;;;16.55;100.00
9257;BME280;4665;51.368;6.782;2022-10-30T02:00:25;101391.97;;;16.46;100.00
9257;BME280;4665;51.368;6.782;2022-10-30T02:02:51;101387.13;;;16.41;100.00
9257;BME280;4665;51.368;6.782;2022-10-30T02:05:40;101386.47;;;16.39;100.00
9257;BME280;4665;51.368;6.782;2022-10-30T02:08:06;101382.28;;;16.37;100.00
9257;BME280;4665;51.368;6.782;2022-10-30T02:10:34;101389.19;;;16.31;100.00
9257;BME280;4665;51.368;6.782;2022-10-30T02:13:00;101376.66;;;16.24;100.00
9257;BME280;4665;51.368;6.782;2022-10-30T02:15:26;101375.53;;;16.18;100.00
9257;BME280;4665;51.368;6.782;2022-10-30T02:17:52;101372.16;;;16.16;100.00
9257;BME280;4665;51.368;6.782;2022-10-30T02:20:19;101382.09;;;16.15;100.00
9257;BME280;4665;51.368;6.782;2022-10-30T02:22:45;101378.59;;;16.07;100.00
9257;BME280;4665;51.368;6.782;2022-10-30T02:25:11;101372.44;;;15.98;100.00
9257;BME280;4665;51.368;6.782;2022-10-30T02:27:36;101390.72;;;16.03;100.00
9257;BME280;4665;51.368;6.782;2022-10-30T02:30:02;101381.19;;;15.92;100.00
9257;BME280;4665;51.368;6.782;2022-10-30T02:32:28;101392.94;;;15.91;100.00
9257;BME280;4665;51.368;6.782;2022-10-30T02:34:53;101394.97;;;15.89;100.00
9257;BME280;4665;51.368;6.782;2022-10-30T02:37:18;101395.19;;;15.79;100.00
9257;BME280;4665;51.368;6.782;2022-10-30T02:39:44;101410.94;;;15.82;100.00
9257;BME280;4665;51.368;6.782;2022-10-30T02:42:09;101399.19;;;15.83;100.00
9257;BME280;4665;51.368;6.782;2022-10-30T02:44:35;101391.34;;;15.73;100.00
9257;BME280;4665;51.368;6.782;2022-10-30T02:47:01;101394.88;;;15.74;100.00
9257;BME280;4665;51.368;6.782;2022-10-30T02:49:26;101386.47;;;15.61;100.00
9257;BME280;4665;51.368;6.782;2022-10-30T02:51:52;101387.16;;;15.54;100.00
9257;BME280;4665;51.368;6.782;2022-10-30T02:54:17;101403.09;;;15.64;100.00
9257;BME280;4665;51.368;6.782;2022-10-30T02:56:42;101412.50;;;15.60;100.00
9257;BME280;4665;51.368;6.782;2022-10-30T02:59:08;101409.00;;;15.51;100.00
9257;BME280;4665;51.368;6.782;2022-10-30T03:01:33;101404.16;;;15.39;100.00
9257;BME280;4665;51.368;6.782;2022-10-30T03:03:59;101390.59;;;15.32;100.00
9257;BME280;4665;51.368;6.782;2022-10-30T03:06:24;101392.94;;;15.35;100.00
9257;BME280;4665;51.368;6.782;2022-10-30T03:08:50;101394.78;;;15.34;100.00
9257;BME280;4665;51.368;6.782;2022-10-30T03:11:17;101400.94;;;15.43;100.00
9257;BME280;4665;51.368;6.782;2022-10-30T03:13:44;101403.63;;;15.43;100.00
9257;BME280;4665;51.368;6.782;2022-10-30T03:16:13;101397.94;;;15.38;100.00
9257;BME280;4665;51.368;6.782;2022-10-30T03:18:39;101420.09;;;15.40;100.00
9257;BME280;4665;51.368;6.782;2022-10-30T03:21:06;101397.66;;;15.25;100.00
9257;BME280;4665;51.368;6.782;2022-10-30T03:23:33;101407.03;;;15.29;100.00
9257;BME280;4665;51.368;6.782;2022-10-30T03:25:59;101406.53;;;15.17;100.00
9257;BME280;4665;51.368;6.782;2022-10-30T03:28:26;101404.38;;;15.12;100.00
9257;BME280;4665;51.368;6.782;2022-10-30T03:31:07;101421.97;;;15.15;100.00
9257;BME280;4665;51.368;6.782;2022-10-30T03:33:33;101408.72;;;15.05;100.00
9257;BME280;4665;51.368;6.782;2022-10-30T03:35:59;101412.75;;;15.01;100.00
9257;BME280;4665;51.368;6.782;2022-10-30T03:38:25;101411.41;;;14.89;100.00
9257;BME280;4665;51.368;6.782;2022-10-30T03:40:50;101388.59;;;14.68;100.00
9257;BME280;4665;51.368;6.782;2022-10-30T03:43:16;101403.53;;;14.63;100.00
9257;BME280;4665;51.368;6.782;2022-10-30T03:45:50;101420.63;;;14.70;100.00
9257;BME280;4665;51.368;6.782;2022-10-30T03:48:18;101409.84;;;14.53;100.00
9257;BME280;4665;51.368;6.782;2022-10-30T03:50:44;101421.06;;;14.49;100.00
9257;BME280;4665;51.368;6.782;2022-10-30T03:53:10;101422.94;;;14.48;100.00
9257;BME280;4665;51.368;6.782;2022-10-30T03:55:35;101426.25;;;14.42;100.00
9257;BME280;4665;51.368;6.782;2022-10-30T03:58:01;101435.63;;;14.38;100.00
9257;BME280;4665;51.368;6.782;2022-10-30T04:00:26;101439.94;;;14.31;100.00
9257;BME280;4665;51.368;6.782;2022-10-30T04:02:52;101434.09;;;14.27;100.00
9257;BME280;4665;51.368;6.782;2022-10-30T04:05:19;101430.88;;;14.16;100.00
9257;BME280;4665;51.368;6.782;2022-10-30T04:07:46;101407.53;;;14.00;100.00
9257;BME280;4665;51.368;6.782;2022-10-30T04:10:12;101414.56;;;13.93;100.00
9257;BME280;4665;51.368;6.782;2022-10-30T04:12:38;101426.53;;;13.80;100.00
9257;BME280;4665;51.368;6.782;2022-10-30T04:15:05;101417.16;;;13.76;100.00
9257;BME280;4665;51.368;6.782;2022-10-30T04:17:31;101431.19;;;13.78;100.00
9257;BME280;4665;51.368;6.782;2022-10-30T04:19:56;101427.00;;;13.76;100.00
9257;BME280;4665;51.368;6.782;2022-10-30T04:22:22;101439.09;;;13.80;100.00
9257;BME280;4665;51.368;6.782;2022-10-30T04:24:47;101422.34;;;13.78;100.00
9257;BME280;4665;51.368;6.782;2022-10-30T04:27:15;101442.97;;;13.85;100.00
9257;BME280;4665;51.368;6.782;2022-10-30T04:29:41;101437.28;;;13.88;100.00
9257;BME280;4665;51.368;6.782;2022-10-30T04:32:10;101443.97;;;13.84;100.00
9257;BME280;4665;51.368;6.782;2022-10-30T04:34:35;101432.16;;;13.69;100.00
9257;BME280;4665;51.368;6.782;2022-10-30T04:37:03;101435.50;;;13.71;100.00
9257;BME280;4665;51.368;6.782;2022-10-30T04:39:29;101441.41;;;13.75;100.00
9257;BME280;4665;51.368;6.782;2022-10-30T04:41:54;101420.94;;;13.65;100.00
9257;BME280;4665;51.368;6.782;2022-10-30T04:44:20;101426.81;;;13.69;100.00
9257;BME280;4665;51.368;6.782;2022-10-30T04:46:45;101430.50;;;13.68;100.00
9257;BME280;4665;51.368;6.782;2022-10-30T04:49:10;101419.44;;;13.63;100.00
9257;BME280;4665;51.368;6.782;2022-10-30T04:51:36;101425.75;;;13.62;100.00
9257;BME280;4665;51.368;6.782;2022-10-30T04:54:01;101418.06;;;13.59;100.00
9257;BME280;4665;51.368;6.782;2022-10-30T04:56:26;101412.00;;;13.57;100.00
9257;BME280;4665;51.368;6.782;2022-10-30T04:58:52;101418.00;;;13.51;100.00
9257;BME280;4665;51.368;6.782;2022-10-30T05:01:18;101427.19;;;13.48;100.00
9257;BME280;4665;51.368;6.782;2022-10-30T05:03:43;101407.38;;;13.33;100.00
9257;BME280;4665;51.368;6.782;2022-10-30T05:06:20;101399.63;;;13.30;100.00
9257;BME280;4665;51.368;6.782;2022-10-30T05:08:46;101415.91;;;13.36;100.00
9257;BME280;4665;51.368;6.782;2022-10-30T05:11:12;101396.06;;;13.21;100.00
9257;BME280;4665;51.368;6.782;2022-10-30T05:13:37;101393.31;;;13.13;100.00
9257;BME280;4665;51.368;6.782;2022-10-30T05:16:03;101389.25;;;13.09;100.00
9257;BME280;4665;51.368;6.782;2022-10-30T05:18:28;101393.63;;;13.10;100.00
9257;BME280;4665;51.368;6.782;2022-10-30T05:20:53;101405.63;;;13.05;100.00
9257;BME280;4665;51.368;6.782;2022-10-30T05:23:19;101386.47;;;12.92;100.00
9257;BME280;4665;51.368;6.782;2022-10-30T05:25:44;101388.44;;;12.90;100.00
9257;BME280;4665;51.368;6.782;2022-10-30T05:28:09;101401.00;;;12.90;100.00
9257;BME280;4665;51.368;6.782;2022-10-30T05:30:35;101386.88;;;12.79;100.00
9257;BME280;4665;51.368;6.782;2022-10-30T05:33:05;101379.00;;;12.78;100.00
9257;BME280;4665;51.368;6.782;2022-10-30T05:35:31;101392.44;;;12.86;100.00
9257;BME280;4665;51.368;6.782;2022-10-30T05:37:58;101367.63;;;12.76;100.00
9257;BME280;4665;51.368;6.782;2022-10-30T05:40:23;101390.25;;;12.81;100.00
9257;BME280;4665;51.368;6.782;2022-10-30T05:42:49;101397.72;;;12.78;100.00
9257;BME280;4665;51.368;6.782;2022-10-30T05:45:15;101391.69;;;12.76;100.00
9257;BME280;4665;51.368;6.782;2022-10-30T05:47:41;101386.78;;;12.71;100.00
9257;BME280;4665;51.368;6.782;2022-10-30T05:50:08;101399.88;;;12.74;100.00
9257;BME280;4665;51.368;6.782;2022-10-30T05:52:34;101394.44;;;12.66;100.00
9257;BME280;4665;51.368;6.782;2022-10-30T05:54:59;101397.66;;;12.70;100.00
9257;BME280;4665;51.368;6.782;2022-10-30T05:57:28;101401.31;;;12.69;100.00
9257;BME280;4665;51.368;6.782;2022-10-30T05:59:54;101405.38;;;12.73;100.00
9257;BME280;4665;51.368;6.782;2022-10-30T06:02:20;101416.75;;;12.75;100.00
9257;BME280;4665;51.368;6.782;2022-10-30T06:04:45;101412.84;;;12.69;100.00
9257;BME280;4665;51.368;6.782;2022-10-30T06:07:11;101399.03;;;12.56;100.00
9257;BME280;4665;51.368;6.782;2022-10-30T06:09:36;101394.44;;;12.48;100.00
9257;BME280;4665;51.368;6.782;2022-10-30T06:12:02;101407.09;;;12.46;100.00
9257;BME280;4665;51.368;6.782;2022-10-30T06:14:27;101409.78;;;12.46;100.00
9257;BME280;4665;51.368;6.782;2022-10-30T06:16:52;101386.25;;;12.32;100.00
9257;BME280;4665;51.368;6.782;2022-10-30T06:19:18;101390.63;;;12.33;100.00
9257;BME280;4665;51.368;6.782;2022-10-30T06:21:43;101390.25;;;12.28;100.00
9257;BME280;4665;51.368;6.782;2022-10-30T06:24:09;101418.56;;;12.38;100.00
9257;BME280;4665;51.368;6.782;2022-10-30T06:26:34;101413.53;;;12.35;100.00
9257;BME280;4665;51.368;6.782;2022-10-30T06:28:59;101415.88;;;12.38;100.00
9257;BME280;4665;51.368;6.782;2022-10-30T06:31:25;101396.88;;;12.24;100.00
9257;BME280;4665;51.368;6.782;2022-10-30T06:33:50;101400.50;;;12.23;100.00
9257;BME280;4665;51.368;6.782;2022-10-30T06:36:15;101416.25;;;12.26;100.00
9257;BME280;4665;51.368;6.782;2022-10-30T06:38:41;101407.31;;;12.17;100.00
9257;BME280;4665;51.368;6.782;2022-10-30T06:41:07;101423.13;;;12.28;100.00
9257;BME280;4665;51.368;6.782;2022-10-30T06:43:32;101422.97;;;12.30;100.00
9257;BME280;4665;51.368;6.782;2022-10-30T06:45:58;101411.19;;;12.23;100.00
9257;BME280;4665;51.368;6.782;2022-10-30T06:48:23;101406.31;;;12.18;100.00
9257;BME280;4665;51.368;6.782;2022-10-30T06:50:53;101425.50;;;12.31;100.00
9257;BME280;4665;51.368;6.782;2022-10-30T06:53:19;101415.25;;;12.27;100.00
9257;BME280;4665;51.368;6.782;2022-10-30T06:55:44;101415.81;;;12.30;100.00
9257;BME280;4665;51.368;6.782;2022-10-30T06:58:17;101414.56;;;12.25;100.00
9257;BME280;4665;51.368;6.782;2022-10-30T07:00:42;101421.16;;;12.30;100.00
9257;BME280;4665;51.368;6.782;2022-10-30T07:03:08;101425.34;;;12.33;100.00
9257;BME280;4665;51.368;6.782;2022-10-30T07:05:33;101419.31;;;12.31;100.00
9257;BME280;4665;51.368;6.782;2022-10-30T07:07:59;101415.38;;;12.35;100.00
9257;BME280;4665;51.368;6.782;2022-10-30T07:10:24;101416.19;;;12.35;100.00
9257;BME280;4665;51.368;6.782;2022-10-30T07:12:51;101431.66;;;12.32;100.00
9257;BME280;4665;51.368;6.782;2022-10-30T07:15:17;101431.66;;;12.32;100.00
9257;BME280;4665;51.368;6.782;2022-10-30T07:17:42;101411.38;;;12.21;100.00
9257;BME280;4665;51.368;6.782;2022-10-30T07:20:08;101434.06;;;12.35;100.00
9257;BME280;4665;51.368;6.782;2022-10-30T07:22:37;101413.41;;;12.27;100.00
9257;BME280;4665;51.368;6.782;2022-10-30T07:25:03;101413.84;;;12.32;100.00
9257;BME280;4665;51.368;6.782;2022-10-30T07:27:28;101423.66;;;12.32;100.00
9257;BME280;4665;51.368;6.782;2022-10-30T07:29:53;101414.81;;;12.31;100.00
9257;BME280;4665;51.368;6.782;2022-10-30T07:32:19;101412.00;;;12.33;100.00
9257;BME280;4665;51.368;6.782;2022-10-30T07:34:44;101424.28;;;12.43;100.00
9257;BME280;4665;51.368;6.782;2022-10-30T07:37:09;101440.28;;;12.53;100.00
9257;BME280;4665;51.368;6.782;2022-10-30T07:39:35;101433.22;;;12.52;100.00
9257;BME280;4665;51.368;6.782;2022-10-30T07:42:00;101428.56;;;12.54;100.00
9257;BME280;4665;51.368;6.782;2022-10-30T07:44:26;101426.84;;;12.63;100.00
9257;BME280;4665;51.368;6.782;2022-10-30T07:46:51;101426.06;;;12.71;100.00
9257;BME280;4665;51.368;6.782;2022-10-30T07:49:16;101414.69;;;12.69;100.00
9257;BME280;4665;51.368;6.782;2022-10-30T07:51:42;101428.50;;;12.82;100.00
9257;BME280;4665;51.368;6.782;2022-10-30T07:54:07;101425.22;;;12.88;100.00
9257;BME280;4665;51.368;6.782;2022-10-30T07:56:32;101414.69;;;12.87;100.00
9257;BME280;4665;51.368;6.782;2022-10-30T07:58:58;101416.78;;;13.01;100.00
9257;BME280;4665;51.368;6.782;2022-10-30T08:01:23;101399.44;;;13.05;100.00
9257;BME280;4665;51.368;6.782;2022-10-30T08:03:48;101401.22;;;13.22;100.00
9257;BME280;4665;51.368;6.782;2022-10-30T08:06:14;101419.25;;;13.38;100.00
9257;BME280;4665;51.368;6.782;2022-10-30T08:08:39;101424.72;;;13.55;100.00
9257;BME280;4665;51.368;6.782;2022-10-30T08:11:04;101431.19;;;13.70;100.00
9257;BME280;4665;51.368;6.782;2022-10-30T08:13:30;101435.09;;;13.84;100.00
9257;BME280;4665;51.368;6.782;2022-10-30T08:15:55;101419.53;;;13.87;100.00
9257;BME280;4665;51.368;6.782;2022-10-30T08:18:20;101424.94;;;13.96;100.00
9257;BME280;4665;51.368;6.782;2022-10-30T08:20:49;101416.75;;;14.05;100.00
9257;BME280;4665;51.368;6.782;2022-10-30T08:23:14;101420.69;;;14.27;100.00
9257;BME280;4665;51.368;6.782;2022-10-30T08:25:42;101415.88;;;14.39;100.00
9257;BME280;4665;51.368;6.782;2022-10-30T08:28:07;101423.41;;;14.52;100.00
9257;BME280;4665;51.368;6.782;2022-10-30T08:30:34;101409.06;;;14.61;100.00
9257;BME280;4665;51.368;6.782;2022-10-30T08:33:05;101410.09;;;14.77;100.00
9257;BME280;4665;51.368;6.782;2022-10-30T08:35:30;101407.75;;;14.90;100.00
9257;BME280;4665;51.368;6.782;2022-10-30T08:37:58;101398.66;;;14.99;100.00
9257;BME280;4665;51.368;6.782;2022-10-30T08:40:24;101406.88;;;15.14;100.00
9257;BME280;4665;51.368;6.782;2022-10-30T08:42:55;101402.50;;;15.21;100.00
9257;BME280;4665;51.368;6.782;2022-10-30T08:45:21;101400.97;;;15.35;100.00
9257;BME280;4665;51.368;6.782;2022-10-30T08:47:47;101402.66;;;15.44;100.00
9257;BME280;4665;51.368;6.782;2022-10-30T08:50:13;101399.59;;;15.55;100.00
9257;BME280;4665;51.368;6.782;2022-10-30T08:52:39;101395.88;;;15.56;100.00
9257;BME280;4665;51.368;6.782;2022-10-30T08:55:04;101401.91;;;15.75;100.00
9257;BME280;4665;51.368;6.782;2022-10-30T08:57:37;101400.50;;;15.87;100.00
9257;BME280;4665;51.368;6.782;2022-10-30T09:00:06;101395.94;;;15.96;100.00
9257;BME280;4665;51.368;6.782;2022-10-30T09:02:33;101404.13;;;16.11;100.00
9257;BME280;4665;51.368;6.782;2022-10-30T09:04:58;101399.72;;;16.18;100.00
9257;BME280;4665;51.368;6.782;2022-10-30T09:07:24;101390.75;;;16.26;100.00
9257;BME280;4665;51.368;6.782;2022-10-30T09:09:49;101388.91;;;16.26;100.00
9257;BME280;4665;51.368;6.782;2022-10-30T09:12:14;101384.16;;;16.36;100.00
9257;BME280;4665;51.368;6.782;2022-10-30T09:14:40;101379.72;;;16.44;100.00
9257;BME280;4665;51.368;6.782;2022-10-30T09:17:06;101386.34;;;16.56;100.00
9257;BME280;4665;51.368;6.782;2022-10-30T09:19:31;101379.19;;;16.71;100.00
9257;BME280;4665;51.368;6.782;2022-10-30T09:21:57;101355.81;;;16.72;100.00
9257;BME280;4665;51.368;6.782;2022-10-30T09:24:22;101357.63;;;16.79;100.00
9257;BME280;4665;51.368;6.782;2022-10-30T09:26:47;101371.84;;;17.03;100.00
9257;BME280;4665;51.368;6.782;2022-10-30T09:29:13;101355.72;;;17.03;100.00
9257;BME280;4665;51.368;6.782;2022-10-30T09:31:38;101374.59;;;17.18;100.00
9257;BME280;4665;51.368;6.782;2022-10-30T09:34:04;101360.31;;;17.17;100.00
9257;BME280;4665;51.368;6.782;2022-10-30T09:36:29;101370.25;;;17.32;100.00
9257;BME280;4665;51.368;6.782;2022-10-30T09:38:56;101355.66;;;17.26;100.00
9257;BME280;4665;51.368;6.782;2022-10-30T09:54:54;101393.78;;;17.82;100.00
9257;BME280;4665;51.368;6.782;2022-10-30T10:00:14;101379.16;;;17.92;100.00
9257;BME280;4665;51.368;6.782;2022-10-30T10:03:07;101390.66;;;18.00;100.00
9257;BME280;4665;51.368;6.782;2022-10-30T10:06:10;101382.09;;;18.12;100.00
9257;BME280;4665;51.368;6.782;2022-10-30T10:08:39;101375.28;;;18.16;98.68
9257;BME280;4665;51.368;6.782;2022-10-30T10:11:16;101368.94;;;18.23;98.96
9257;BME280;4665;51.368;6.782;2022-10-30T10:16:28;101353.88;;;18.29;98.11
9257;BME280;4665;51.368;6.782;2022-10-30T10:21:43;101365.81;;;18.41;100.00
9257;BME280;4665;51.368;6.782;2022-10-30T10:24:22;101364.84;;;18.49;99.89
9257;BME280;4665;51.368;6.782;2022-10-30T10:27:11;101363.25;;;18.55;96.95
9257;BME280;4665;51.368;6.782;2022-10-30T10:38:13;101364.34;;;18.82;95.10
9257;BME280;4665;51.368;6.782;2022-10-30T10:46:30;101367.22;;;19.02;97.27
9257;BME280;4665;51.368;6.782;2022-10-30T10:51:44;101364.63;;;19.15;95.64
9257;BME280;4665;51.368;6.782;2022-10-30T10:54:17;101345.06;;;19.13;95.97
9257;BME280;4665;51.368;6.782;2022-10-30T10:56:45;101352.81;;;19.23;93.93
9257;BME280;4665;51.368;6.782;2022-10-30T10:59:16;101357.03;;;19.32;94.72
9257;BME280;4665;51.368;6.782;2022-10-30T11:01:50;101344.22;;;19.41;94.02
9257;BME280;4665;51.368;6.782;2022-10-30T11:04:39;101353.81;;;19.50;93.73
9257;BME280;4665;51.368;6.782;2022-10-30T11:07:16;101341.38;;;19.55;91.04
9257;BME280;4665;51.368;6.782;2022-10-30T11:09:43;101346.38;;;19.65;90.00
9257;BME280;4665;51.368;6.782;2022-10-30T11:12:11;101355.81;;;19.69;89.77
9257;BME280;4665;51.368;6.782;2022-10-30T11:14:36;101346.69;;;19.70;90.37
9257;BME280;4665;51.368;6.782;2022-10-30T11:17:19;101347.28;;;19.72;89.91
9257;BME280;4665;51.368;6.782;2022-10-30T11:19:48;101349.59;;;19.75;89.42
9257;BME280;4665;51.368;6.782;2022-10-30T11:22:30;101342.53;;;19.81;85.16
9257;BME280;4665;51.368;6.782;2022-10-30T11:25:20;101340.91;;;19.87;86.48
9257;BME280;4665;51.368;6.782;2022-10-30T11:27:48;101344.44;;;19.87;86.50
9257;BME280;4665;51.368;6.782;2022-10-30T11:30:23;101347.97;;;19.88;85.29
9257;BME280;4665;51.368;6.782;2022-10-30T11:32:49;101336.13;;;19.89;84.72
9257;BME280;4665;51.368;6.782;2022-10-30T11:35:17;101334.28;;;19.89;84.58
9257;BME280;4665;51.368;6.782;2022-10-30T11:37:46;101335.72;;;19.92;84.25
9257;BME280;4665;51.368;6.782;2022-10-30T11:42:49;101337.44;;;20.06;84.59
9257;BME280;4665;51.368;6.782;2022-10-30T11:45:18;101334.94;;;20.11;87.13
9257;BME280;4665;51.368;6.782;2022-10-30T11:47:48;101335.78;;;20.18;82.16
9257;BME280;4665;51.368;6.782;2022-10-30T11:50:24;101322.47;;;20.10;78.88
9257;BME280;4665;51.368;6.782;2022-10-30T11:52:54;101326.66;;;20.20;77.60
9257;BME280;4665;51.368;6.782;2022-10-30T11:55:34;101322.06;;;20.13;77.46
9257;BME280;4665;51.368;6.782;2022-10-30T11:58:00;101331.22;;;20.12;79.06
9257;BME280;4665;51.368;6.782;2022-10-30T12:00:29;101327.66;;;20.12;79.30
9257;BME280;4665;51.368;6.782;2022-10-30T12:02:57;101324.13;;;20.11;79.59
9257;BME280;4665;51.368;6.782;2022-10-30T12:05:31;101325.19;;;20.10;84.97
9257;BME280;4665;51.368;6.782;2022-10-30T12:10:55;101316.84;;;20.05;83.10
9257;BME280;4665;51.368;6.782;2022-10-30T12:13:22;101311.63;;;20.04;83.76
9257;BME280;4665;51.368;6.782;2022-10-30T12:15:49;101324.97;;;20.05;85.13
9257;BME280;4665;51.368;6.782;2022-10-30T12:18:27;101323.28;;;20.04;84.97
9257;BME280;4665;51.368;6.782;2022-10-30T12:20:56;101327.66;;;20.05;85.06
9257;BME280;4665;51.368;6.782;2022-10-30T12:23:24;101323.47;;;20.03;85.39
9257;BME280;4665;51.368;6.782;2022-10-30T12:25:52;101313.91;;;20.00;83.20
9257;BME280;4665;51.368;6.782;2022-10-30T12:28:23;101318.91;;;20.03;81.44
9257;BME280;4665;51.368;6.782;2022-10-30T12:31:24;101314.16;;;20.05;82.15
9257;BME280;4665;51.368;6.782;2022-10-30T12:36:32;101322.25;;;20.18;80.25
9257;BME280;4665;51.368;6.782;2022-10-30T12:39:14;101323.75;;;20.28;79.91
9257;BME280;4665;51.368;6.782;2022-10-30T12:41:49;101327.28;;;20.28;78.49
9257;BME280;4665;51.368;6.782;2022-10-30T12:44:31;101321.66;;;20.23;76.99
9257;BME280;4665;51.368;6.782;2022-10-30T12:47:07;101327.28;;;20.28;78.39
9257;BME280;4665;51.368;6.782;2022-10-30T12:49:43;101325.63;;;20.27;75.34
9257;BME280;4665;51.368;6.782;2022-10-30T12:52:19;101325.00;;;20.25;75.67
9257;BME280;4665;51.368;6.782;2022-10-30T12:55:08;101318.75;;;20.25;79.61
9257;BME280;4665;51.368;6.782;2022-10-30T12:57:42;101319.78;;;20.24;77.87
9257;BME280;4665;51.368;6.782;2022-10-30T13:00:16;101320.00;;;20.22;79.47
9257;BME280;4665;51.368;6.782;2022-10-30T13:03:03;101307.94;;;20.25;78.02
9257;BME280;4665;51.368;6.782;2022-10-30T13:05:44;101310.44;;;20.33;78.78
9257;BME280;4665;51.368;6.782;2022-10-30T13:10:49;101295.03;;;20.27;77.95
9257;BME280;4665;51.368;6.782;2022-10-30T13:13:26;101289.41;;;20.22;78.67
9257;BME280;4665;51.368;6.782;2022-10-30T13:15:55;101299.81;;;20.25;81.89
9257;BME280;4665;51.368;6.782;2022-10-30T13:18:23;101297.53;;;20.22;80.68
9257;BME280;4665;51.368;6.782;2022-10-30T13:29:11;101296.28;;;20.17;81.34
9257;BME280;4665;51.368;6.782;2022-10-30T13:32:05;101298.97;;;20.17;82.48
9257;BME280;4665;51.368;6.782;2022-10-30T13:34:39;101299.41;;;20.14;86.92
9257;BME280;4665;51.368;6.782;2022-10-30T13:53:42;101313.97;;;20.20;87.46
9257;BME280;4665;51.368;6.782;2022-10-30T13:56:13;101295.44;;;20.10;86.76
9257;BME280;4665;51.368;6.782;2022-10-30T13:58:43;101308.75;;;20.18;91.27
9257;BME280;4665;51.368;6.782;2022-10-30T14:01:14;101314.56;;;20.15;89.35
9257;BME280;4665;51.368;6.782;2022-10-30T14:04:15;101301.22;;;20.07;89.31
9257;BME280;4665;51.368;6.782;2022-10-30T14:11:52;101304.78;;;20.08;89.37
9257;BME280;4665;51.368;6.782;2022-10-30T14:19:28;101301.66;;;20.04;89.23
9257;BME280;4665;51.368;6.782;2022-10-30T14:39:47;101285.00;;;20.01;90.86
9257;BME280;4665;51.368;6.782;2022-10-30T14:42:30;101282.94;;;19.96;92.10
9257;BME280;4665;51.368;6.782;2022-10-30T14:45:22;101279.59;;;19.94;92.12
9257;BME280;4665;51.368;6.782;2022-10-30T14:50:49;101293.72;;;19.89;94.40
9257;BME280;4665;51.368;6.782;2022-10-30T14:53:46;101294.31;;;19.85;97.12
9257;BME280;4665;51.368;6.782;2022-10-30T14:58:43;101283.88;;;19.68;100.00
9257;BME280;4665;51.368;6.782;2022-10-30T15:06:49;101287.31;;;19.55;100.00
9257;BME280;4665;51.368;6.782;2022-10-30T15:14:51;101281.63;;;19.37;100.00
9257;BME280;4665;51.368;6.782;2022-10-30T15:17:37;101298.06;;;19.36;100.00
9257;BME280;4665;51.368;6.782;2022-10-30T15:20:07;101292.41;;;19.30;100.00
9257;BME280;4665;51.368;6.782;2022-10-30T15:22:37;101294.88;;;19.25;100.00
9257;BME280;4665;51.368;6.782;2022-10-30T15:25:05;101303.78;;;19.26;100.00
9257;BME280;4665;51.368;6.782;2022-10-30T15:27:39;101314.38;;;19.21;100.00
9257;BME280;4665;51.368;6.782;2022-10-30T15:30:15;101318.72;;;19.15;100.00